Scroll down
FLIGHT INFORMATION
Federal Express (FedEx)

FDX820

At Arrival Gate

PAFA
 CYEG
DATE: 2022-07-20
GATE:  -
GATE DEPARTURE: 20:46
TAKEOFF: 20:54
DATE: 2022-07-20
GATE:  -
LANDING: 23:40
GATE ARRIVAL: 23:51
FLIGHT DATA
Crew: 
Speed: 
490 kts
Altitude: 
35,027 ft
Stage Length: 
1,239.9 nm
Block Time: 
3.1 hrs
Flight Time: 
2.8 hrs
Fuel Used: 
56,161 lb
Cleared Route: PAFA SKIMO HRDNG RDFLG ORT CFDJJ BIBEM YXY YQH YYE MERCH YPE AROUK TETAG SETBU PESGO VIPSO NOTIG KEVRA OMENA RW30
TRACK DATA
50,000 ft 1,000 kts
AIRCRAFT INFO AND CUMULATIVE STATS
Aircraft Type: 
B77LF
Registration: 
SELCAL: 
CMDL
MSN/LN: 
38969 / 947
Total Flights: 
5
Total Block Time: 
20.5 hrs
Total Flight Time: 
19 hrs
Total Fuel Used: 
618,564 lb
DATALINK LOG | Newest first | Current as of: 2022-08-16 07:59:03
LABEL SEQUENCE CONTENT Dn/Up
QD535123:51 8.6▼ Dn
QC434123:40▼ Dn
GA1828GATE PENDING▲ Up
GR1818CYEG 23:42 MAAS 00 YP/UM 0/0 WCHR/S/C 0/0/0 HI-VAL NO▼ Dn
2U1533CYEG 202300Z 30008KT 20SM FEW062 FEW250 23/09 A2993 RMK CU1CI1 CU TR CI TR SLP142 DENSITY ALT 3900FT▲ Up
2S1717CYEG▼ Dn
2U0311CYEG 202000Z 27011G16KT 20SM FEW059 FEW250 22/09 A2995 RMK CU2CI1 CI TR SLP150 DENSITY ALT 3800FT▲ Up
2S0510CYEG▼ Dn
QB570320:54▼ Dn
QA485520:46 64.7▼ Dn
A33947CLEARED TO CYEG VIA RDFLG4 RDFLG J502 ORT J515 YXY YQH YYE J537 YPE Q807 TETAG TETAG2. SQUAWK 3042.▲ Up
B33946PAFA CYEG FDX820 N842FD D ▼ Dn
Q03644[LINK ACK]▲ Up
Q03644[LINK TEST]▼ Dn
QA364320:32 0▼ Dn
A32918CLEARED TO CYEG VIA RDFLG4 RDFLG J502 ORT J515 YXY YQH YYE J537 YPE Q807 TETAG TETAG2. SQUAWK 6360.▲ Up
B32918PAFA CYEG FDX820 N842FD D ▼ Dn
Q02159[LINK ACK]▲ Up
Q02159[LINK TEST]▼ Dn


AIRCRAFT HISTORY
FLIGHT DATE FLIGHT NO. ORIGIN DESTINATION CLEARED ROUTE BLOCK TIME FLIGHT TIME FUEL USED PILOT
2022-07-25FDX9842KDEN KMEM KDEN RZC MARBI IGLOO SAUCC BRBBQ JAMLA BUDEE RW092 hrs1.8 hrs283,333 lbAllan Burek
2022-07-23FDX1820CYEG KDEN CYEG KEKBI JEVON OMROD TOVIS YEA BIL TOFUU GNOLA HIPEE FOLSM BBOCO FLATI ELLDO TOTTT YESSS BAACK BABAA HIMOM CRUUP RW35L2.7 hrs2.2 hrs39,489 lbPete L.
2022-07-20FDX820PAFA CYEG PAFA SKIMO HRDNG RDFLG ORT CFDJJ BIBEM YXY YQH YYE MERCH YPE AROUK TETAG SETBU PESGO VIPSO NOTIG KEVRA OMENA RW303.1 hrs2.8 hrs56,161 lbPete L.
2022-07-19FDX1712KSEA PAFA KSEA DODVE WUREL ATOME BREMM BANGR ARRIE DUGGS HANRY CFSTF ANN GESTI DOOZI LVD HOODS AYZOL RDFLG HRDNG RNDRR ROAAD RW20R3.5 hrs3.2 hrs53,816 lbPete L.
2021-08-06FDX806RJBB KSEA RJBB TONDA KEC KILAP ISEBI MOE ONASU KAGIS AVBET LEPKI 41E60 42E70 44E80 46N70 48N60 48N50 48N40 48N30 TOU KSEA9.3 hrs9.1 hrs185,765 lbCharles Harris